createdAt,value
2023-02-19T00:02:23.946Z,99061.32
2023-02-19T00:05:01.821Z,99066.92
2023-02-19T04:09:59.551Z,99194.02
2023-02-19T04:12:39.639Z,99197.76
2023-02-19T04:15:12.353Z,99198.33
2023-02-19T04:17:45.473Z,99196.74
2023-02-19T04:20:16.081Z,99197.50
2023-02-19T04:22:44.691Z,99193.77
2023-02-19T04:25:15.826Z,99193.14
2023-02-19T04:27:44.223Z,99193.81
2023-02-19T04:30:14.301Z,99192.85
2023-02-19T04:32:46.298Z,99193.84
2023-02-19T04:35:26.354Z,99196.98
2023-02-19T04:37:57.525Z,99198.02
2023-02-19T04:40:29.513Z,99197.05
2023-02-19T04:42:58.420Z,99209.51
2023-02-19T04:45:34.010Z,99222.55
2023-02-19T04:48:06.724Z,99223.41
2023-02-19T04:50:39.869Z,99220.71
2023-02-19T04:53:10.251Z,99230.76
2023-02-19T04:55:40.642Z,99227.58
2023-02-19T04:58:08.683Z,99231.98
2023-02-19T05:00:37.166Z,99235.58
2023-02-19T05:03:12.462Z,99234.68
2023-02-19T05:06:11.931Z,99234.11
2023-02-19T05:08:46.551Z,99223.31
2023-02-19T05:11:18.589Z,99216.34
2023-02-19T05:13:54.801Z,99216.54
2023-02-19T05:16:27.006Z,99214.63
2023-02-19T05:18:56.137Z,99219.39
2023-02-19T05:21:25.587Z,99225.05
2023-02-19T05:23:56.386Z,99223.35
2023-02-19T05:26:25.309Z,99232.89
2023-02-19T05:28:53.545Z,99236.95
2023-02-19T05:31:27.909Z,99241.56
2023-02-19T05:33:58.735Z,99254.73
2023-02-19T05:36:30.851Z,99251.48
2023-02-19T05:38:58.857Z,99254.91
2023-02-19T05:41:27.862Z,99259.70
2023-02-19T05:43:57.511Z,99266.77
2023-02-19T05:46:31.751Z,99266.37
2023-02-19T05:49:03.588Z,99261.00
2023-02-19T05:51:34.633Z,99266.68
2023-02-19T05:54:04.555Z,99264.64
2023-02-19T05:56:39.688Z,99263.76
2023-02-19T05:59:29.016Z,99263.29
2023-02-19T06:01:58.373Z,99261.42
2023-02-19T06:04:31.546Z,99265.36
2023-02-19T06:07:05.352Z,99266.59
2023-02-19T06:09:35.423Z,99260.21
2023-02-19T06:12:08.686Z,99264.84
2023-02-19T06:14:39.050Z,99270.70
2023-02-19T06:17:08.256Z,99276.48
2023-02-19T06:19:39.370Z,99276.95
2023-02-19T06:22:12.137Z,99277.14
2023-02-19T06:24:45.054Z,99279.00
2023-02-19T06:27:16.104Z,99286.77
2023-02-19T06:29:49.870Z,99282.26
2023-02-19T06:32:18.627Z,99286.98
2023-02-19T06:34:55.546Z,99290.07
2023-02-19T06:37:26.955Z,99296.41
2023-02-19T06:39:54.741Z,99292.65
2023-02-19T06:42:32.725Z,99294.73
2023-02-19T06:45:02.741Z,99304.97
2023-02-19T06:47:32.325Z,99315.59
2023-02-19T06:50:07.697Z,99316.42
2023-02-19T06:52:44.778Z,99316.92
2023-02-19T06:55:15.706Z,99319.62
2023-02-19T06:57:49.256Z,99317.39
2023-02-19T07:00:20.695Z,99323.25
2023-02-19T07:02:56.706Z,99322.33
2023-02-19T07:05:28.317Z,99324.02
2023-02-19T07:08:02.938Z,99323.05
2023-02-19T07:10:33.531Z,99320.98
2023-02-19T07:13:04.724Z,99330.70
2023-02-19T07:16:25.253Z,99322.67
2023-02-19T07:18:58.851Z,99321.75
2023-02-19T07:21:58.082Z,99307.59
2023-02-19T07:24:29.939Z,99317.66
2023-02-19T07:27:00.931Z,99314.14
2023-02-19T07:29:31.000Z,99323.00
2023-02-19T07:32:30.912Z,99333.33
2023-02-19T07:34:58.328Z,99327.02
2023-02-19T07:37:29.552Z,99319.20
2023-02-19T07:39:58.616Z,99326.65
2023-02-19T07:42:26.385Z,99327.68
2023-02-19T07:44:55.774Z,99327.12
2023-02-19T07:47:25.215Z,99322.40
2023-02-19T07:49:54.317Z,99321.00
2023-02-19T07:52:25.379Z,99327.86
2023-02-19T07:55:00.038Z,99336.08
2023-02-19T07:57:33.351Z,99332.01
2023-02-19T08:00:28.148Z,99333.52
2023-02-19T08:03:02.649Z,99334.95
2023-02-19T08:05:40.260Z,99338.22
2023-02-19T08:08:10.812Z,99348.87
2023-02-19T08:10:58.711Z,99347.45
2023-02-19T08:13:30.314Z,99337.67
2023-02-19T08:16:42.526Z,99334.20
2023-02-19T08:19:13.146Z,99331.56
2023-02-19T08:21:45.411Z,99333.23
2023-02-19T08:24:16.846Z,99339.64
2023-02-19T08:26:48.676Z,99337.43
2023-02-19T08:29:18.137Z,99336.70
2023-02-19T08:31:48.535Z,99331.48
2023-02-19T08:34:20.692Z,99323.77
2023-02-19T08:36:51.104Z,99324.26
2023-02-19T08:39:21.926Z,99311.05
2023-02-19T08:41:52.155Z,99324.19
2023-02-19T08:44:32.294Z,99333.41
2023-02-19T08:47:01.117Z,99328.17
2023-02-19T08:49:29.298Z,99337.79
2023-02-19T08:52:02.681Z,99339.78
2023-02-19T08:54:37.324Z,99346.56
2023-02-19T08:57:09.468Z,99344.79
2023-02-19T08:59:40.797Z,99330.45
2023-02-19T09:02:13.135Z,99340.31
2023-02-19T09:04:45.819Z,99342.36
2023-02-19T09:07:24.599Z,99349.18
2023-02-19T09:09:54.336Z,99342.30
2023-02-19T09:12:25.312Z,99332.70
2023-02-19T09:14:55.339Z,99330.62
2023-02-19T09:17:32.192Z,99338.23
2023-02-19T09:20:06.118Z,99331.77
2023-02-19T09:22:36.164Z,99325.91
2023-02-19T09:25:06.578Z,99330.20
2023-02-19T09:27:36.110Z,99321.14
2023-02-19T09:30:08.806Z,99320.98
2023-02-19T09:32:42.415Z,99309.10
2023-02-19T09:35:14.420Z,99312.80
2023-02-19T09:37:45.532Z,99307.60
2023-02-19T09:40:21.057Z,99313.08
2023-02-19T09:43:21.841Z,99300.23
2023-02-19T09:45:51.530Z,99293.48
2023-02-19T09:48:32.402Z,99297.09
2023-02-19T09:51:04.776Z,99293.88
2023-02-19T09:53:41.421Z,99309.20
2023-02-19T09:56:14.834Z,99298.56
2023-02-19T09:58:49.031Z,99297.30
2023-02-19T10:01:16.739Z,99305.58
2023-02-19T10:03:47.195Z,99299.94
2023-02-19T10:06:23.506Z,99285.54
2023-02-19T10:09:28.968Z,99293.08
2023-02-19T10:11:59.415Z,99302.73
2023-02-19T10:14:39.359Z,99298.41
2023-02-19T10:17:15.762Z,99294.27
2023-02-19T10:20:15.357Z,99309.31
2023-02-19T10:23:07.815Z,99293.63
2023-02-19T10:25:43.224Z,99284.55
2023-02-19T10:28:45.499Z,99291.70
2023-02-19T10:31:41.414Z,99270.08
2023-02-19T10:34:21.663Z,99255.78
2023-02-19T10:37:15.863Z,99242.61
2023-02-19T10:39:49.710Z,99251.14
2023-02-19T10:42:23.204Z,99255.44
2023-02-19T10:44:58.246Z,99250.79
2023-02-19T10:47:27.133Z,99250.36
2023-02-19T10:50:02.122Z,99250.63
2023-02-19T10:52:36.186Z,99249.73
2023-02-19T10:55:24.641Z,99237.45
2023-02-19T10:57:59.306Z,99232.66
2023-02-19T11:00:30.708Z,99224.73
2023-02-19T11:03:33.232Z,99221.53
2023-02-19T11:06:09.526Z,99221.30
2023-02-19T11:09:00.618Z,99244.10
2023-02-19T11:11:33.270Z,99241.72
2023-02-19T11:14:22.694Z,99252.23
2023-02-19T11:16:54.102Z,99243.25
2023-02-19T11:19:42.092Z,99242.59
2023-02-19T11:22:58.586Z,99254.70
2023-02-19T11:25:28.471Z,99255.81
2023-02-19T11:28:21.462Z,99248.14
2023-02-19T11:30:55.476Z,99245.97
2023-02-19T11:33:29.240Z,99248.95
2023-02-19T11:36:30.062Z,99221.67
2023-02-19T11:39:04.182Z,99217.42
2023-02-19T11:42:17.725Z,99211.77
2023-02-19T11:45:20.678Z,99208.36
2023-02-19T11:48:23.432Z,99207.84
2023-02-19T11:51:15.306Z,99214.05
2023-02-19T11:53:49.830Z,99214.17
2023-02-19T11:56:19.829Z,99210.04
2023-02-19T11:59:07.138Z,99218.30
2023-02-19T12:02:06.844Z,99219.80
2023-02-19T12:05:14.823Z,99213.75
2023-02-19T12:08:27.753Z,99223.08
2023-02-19T12:11:13.705Z,99224.98
2023-02-19T12:14:32.469Z,99231.21
2023-02-19T12:17:49.932Z,99240.30
2023-02-19T12:20:51.219Z,99266.89
2023-02-19T12:23:55.432Z,99261.25
2023-02-19T12:26:42.948Z,99255.92
2023-02-19T12:29:51.952Z,99252.27
2023-02-19T12:33:09.217Z,99253.11
2023-02-19T12:36:23.880Z,99251.33
2023-02-19T12:39:53.223Z,99259.76
2023-02-19T12:43:05.362Z,99253.63
2023-02-19T12:46:13.339Z,99257.20
2023-02-19T12:48:52.385Z,99261.59
2023-02-19T12:51:50.020Z,99257.91
2023-02-19T12:54:48.916Z,99255.30
2023-02-19T12:57:38.241Z,99251.17
2023-02-19T13:00:34.665Z,99251.07
2023-02-19T13:03:27.707Z,99242.16
2023-02-19T13:06:22.388Z,99239.41
2023-02-19T13:09:06.731Z,99238.44
2023-02-19T13:12:37.678Z,99247.58
2023-02-19T13:15:14.739Z,99243.70
2023-02-19T13:18:01.463Z,99238.94
2023-02-19T13:20:45.126Z,99241.09
2023-02-19T13:23:57.609Z,99240.95
2023-02-19T13:26:48.585Z,99240.77
2023-02-19T13:30:15.358Z,99243.75
2023-02-19T13:33:30.050Z,99247.59
2023-02-19T13:36:12.957Z,99240.10
2023-02-19T13:38:45.564Z,99242.11
2023-02-19T13:41:29.398Z,99240.95
2023-02-19T13:44:03.471Z,99233.87
2023-02-19T13:46:40.684Z,99241.77
2023-02-19T13:49:35.080Z,99248.43
2023-02-19T13:52:37.536Z,99242.19
2023-02-19T13:55:46.061Z,99238.02
2023-02-19T13:58:51.943Z,99249.25
2023-02-19T14:02:00.297Z,99245.85
2023-02-19T14:05:02.641Z,99242.40
2023-02-19T14:07:59.930Z,99246.81
2023-02-19T14:10:57.376Z,99247.74
2023-02-19T14:14:06.355Z,99254.36
2023-02-19T14:17:31.963Z,99246.55
2023-02-19T14:20:54.237Z,99225.94
2023-02-19T14:23:28.340Z,99228.25
2023-02-19T14:26:03.912Z,99230.02
2023-02-19T14:28:41.131Z,99227.47
2023-02-19T14:31:20.986Z,99234.38
2023-02-19T14:33:53.797Z,99225.73
2023-02-19T14:36:50.723Z,99234.81
2023-02-19T14:39:52.788Z,99229.66
2023-02-19T14:42:26.132Z,99225.46
2023-02-19T14:44:56.913Z,99225.75
2023-02-19T14:47:36.528Z,99225.05
2023-02-19T14:50:08.954Z,99222.29
2023-02-19T14:52:43.891Z,99224.36
2023-02-19T14:55:37.462Z,99222.52
2023-02-19T14:58:30.180Z,99219.88
2023-02-19T15:00:59.216Z,99226.08
2023-02-19T15:03:35.032Z,99227.40
2023-02-19T15:06:07.668Z,99228.02
2023-02-19T15:08:49.142Z,99225.33
2023-02-19T15:11:22.278Z,99221.69
2023-02-19T15:14:13.029Z,99219.77
2023-02-19T15:16:47.948Z,99217.19
2023-02-19T15:19:20.832Z,99221.86
2023-02-19T15:21:54.731Z,99218.91
2023-02-19T15:24:36.118Z,99213.54
2023-02-19T15:27:07.313Z,99218.56
2023-02-19T15:29:37.957Z,99220.80
2023-02-19T15:32:16.293Z,99226.60
2023-02-19T15:35:06.702Z,99228.81
2023-02-19T15:37:42.735Z,99231.40
2023-02-19T15:40:26.828Z,99238.70
2023-02-19T15:42:59.292Z,99237.98
2023-02-19T15:45:38.309Z,99239.42
2023-02-19T15:48:20.076Z,99241.66
2023-02-19T15:50:55.790Z,99243.26
2023-02-19T15:53:32.253Z,99241.82
2023-02-19T15:56:16.418Z,99246.35
2023-02-19T15:59:03.216Z,99248.37
2023-02-19T16:01:58.409Z,99248.90
2023-02-19T16:04:29.290Z,99258.52
2023-02-19T16:07:32.588Z,99265.77
2023-02-19T16:10:16.327Z,99267.70
2023-02-19T16:12:56.893Z,99263.90
2023-02-19T16:15:27.870Z,99273.86
2023-02-19T16:17:56.312Z,99272.76
2023-02-19T16:20:34.857Z,99279.13
2023-02-19T16:23:11.479Z,99279.48
2023-02-19T16:27:42.826Z,99286.25
2023-02-19T16:30:27.915Z,99282.04
2023-02-19T16:33:38.328Z,99281.30
2023-02-19T16:36:42.626Z,99278.75
2023-02-19T16:39:18.381Z,99290.64
2023-02-19T16:41:54.298Z,99290.66
2023-02-19T16:44:27.710Z,99296.70
2023-02-19T16:47:04.945Z,99294.38
2023-02-19T16:49:35.092Z,99290.67
2023-02-19T16:52:07.295Z,99292.17
2023-02-19T16:54:37.171Z,99290.36
2023-02-19T16:57:09.794Z,99292.61
2023-02-19T16:59:40.387Z,99294.23
2023-02-19T17:02:14.456Z,99294.52
2023-02-19T17:04:43.957Z,99289.69
2023-02-19T17:07:19.637Z,99289.71
2023-02-19T17:09:51.897Z,99291.15
2023-02-19T17:12:24.283Z,99287.85
2023-02-19T17:14:55.650Z,99286.31
2023-02-19T17:17:24.272Z,99286.92
2023-02-19T17:19:54.015Z,99287.96
2023-02-19T17:22:24.503Z,99288.23
2023-02-19T17:24:54.980Z,99287.20
2023-02-19T17:27:28.889Z,99284.02
2023-02-19T17:29:59.274Z,99288.17
2023-02-19T17:32:35.795Z,99289.89
2023-02-19T17:35:06.865Z,99289.40
2023-02-19T17:37:35.733Z,99286.62
2023-02-19T17:40:31.899Z,99285.29
2023-02-19T17:43:03.004Z,99288.33
2023-02-19T17:45:36.587Z,99287.59
2023-02-19T17:48:07.296Z,99286.64
2023-02-19T17:50:39.496Z,99286.42
2023-02-19T17:53:08.886Z,99283.41
2023-02-19T17:55:37.505Z,99280.48
2023-02-19T17:58:09.621Z,99282.16
2023-02-19T18:00:39.324Z,99279.30
2023-02-19T18:03:08.665Z,99279.30
2023-02-19T18:05:39.061Z,99280.05
2023-02-19T18:08:14.388Z,99281.53
2023-02-19T18:10:49.478Z,99278.98
2023-02-19T18:13:19.457Z,99279.77
2023-02-19T18:15:49.374Z,99277.71
2023-02-19T18:18:23.295Z,99279.38
2023-02-19T18:20:53.939Z,99277.99
2023-02-19T18:23:28.520Z,99274.13
2023-02-19T18:26:03.884Z,99271.63
2023-02-19T18:28:34.960Z,99274.45
2023-02-19T18:31:06.339Z,99272.55
2023-02-19T18:33:35.689Z,99274.01
2023-02-19T18:36:09.555Z,99277.82
2023-02-19T18:38:41.621Z,99276.41
2023-02-19T18:41:20.269Z,99268.89
2023-02-19T18:43:59.768Z,99267.27
2023-02-19T18:46:37.692Z,99266.45
2023-02-19T18:49:09.625Z,99265.75
2023-02-19T18:51:44.200Z,99268.41
2023-02-19T18:54:16.010Z,99264.69
2023-02-19T18:56:47.343Z,99271.66
2023-02-19T18:59:16.286Z,99274.63
2023-02-19T19:01:48.814Z,99276.57
2023-02-19T19:04:18.927Z,99278.48
2023-02-19T19:06:50.407Z,99277.88
2023-02-19T19:09:24.698Z,99280.16
2023-02-19T19:11:55.889Z,99283.08
2023-02-19T19:14:27.571Z,99283.27
2023-02-19T19:17:00.697Z,99279.59
2023-02-19T19:19:32.078Z,99281.89
2023-02-19T19:22:07.407Z,99284.35
2023-02-19T19:24:41.873Z,99279.33
2023-02-19T19:27:13.138Z,99285.39
2023-02-19T19:29:47.806Z,99285.84
2023-02-19T19:32:21.308Z,99292.46
2023-02-19T19:34:53.336Z,99290.00
2023-02-19T19:37:28.893Z,99285.37
2023-02-19T19:40:05.247Z,99289.14
2023-02-19T19:42:39.049Z,99288.14
2023-02-19T19:45:18.800Z,99291.32
2023-02-19T19:47:56.144Z,99289.45
2023-02-19T19:50:30.999Z,99295.47
2023-02-19T19:53:02.092Z,99286.40
2023-02-19T19:55:32.550Z,99287.89
2023-02-19T19:58:04.461Z,99286.25
2023-02-19T20:00:36.817Z,99288.00
2023-02-19T20:03:07.221Z,99293.43
2023-02-19T20:05:35.987Z,99305.69
2023-02-19T20:08:09.304Z,99314.30
2023-02-19T20:10:39.130Z,99314.62
2023-02-19T20:13:12.918Z,99318.48
2023-02-19T20:15:44.491Z,99323.32
2023-02-19T20:18:30.680Z,99325.05
2023-02-19T20:21:04.763Z,99325.11
2023-02-19T20:23:40.200Z,99329.45
2023-02-19T20:26:10.396Z,99331.95
2023-02-19T20:28:46.539Z,99335.19
2023-02-19T20:31:18.981Z,99342.56
2023-02-19T20:33:51.278Z,99344.28
2023-02-19T20:36:20.294Z,99346.91
2023-02-19T20:38:51.502Z,99348.41
2023-02-19T20:41:21.483Z,99345.05
2023-02-19T20:43:53.090Z,99351.42
2023-02-19T20:46:23.615Z,99355.88
2023-02-19T20:48:56.148Z,99359.31
2023-02-19T20:51:25.255Z,99362.48
2023-02-19T20:53:58.506Z,99370.23
2023-02-19T20:56:28.440Z,99373.51
2023-02-19T20:58:59.626Z,99374.95
2023-02-19T21:01:29.418Z,99379.77
2023-02-19T21:03:59.664Z,99378.59
2023-02-19T21:06:31.672Z,99379.80
2023-02-19T21:09:04.110Z,99385.52
2023-02-19T21:11:37.145Z,99386.69
2023-02-19T21:14:07.862Z,99389.48
2023-02-19T21:16:38.138Z,99393.98
2023-02-19T21:19:14.624Z,99401.05
2023-02-19T21:21:46.949Z,99400.69
2023-02-19T21:24:22.730Z,99401.02
2023-02-19T21:26:54.165Z,99399.95
2023-02-19T21:29:25.522Z,99407.02
2023-02-19T21:31:56.097Z,99405.32
2023-02-19T21:34:27.121Z,99411.37
2023-02-19T21:37:00.000Z,99416.05
2023-02-19T21:39:34.214Z,99425.14
2023-02-19T21:42:18.127Z,99419.91
2023-02-19T21:44:48.010Z,99424.45
2023-02-19T21:47:18.280Z,99422.67
2023-02-19T21:49:48.036Z,99423.31
2023-02-19T21:52:18.018Z,99429.80
2023-02-19T21:54:47.869Z,99436.18
2023-02-19T21:57:16.281Z,99437.25
2023-02-19T21:59:46.118Z,99450.65
2023-02-19T22:02:14.958Z,99456.27
2023-02-19T22:04:51.374Z,99468.41
2023-02-19T22:07:21.913Z,99475.48
2023-02-19T22:09:53.604Z,99478.85
2023-02-19T22:12:23.110Z,99478.79
2023-02-19T22:14:54.972Z,99467.46
2023-02-19T22:17:25.979Z,99452.58
2023-02-19T22:19:57.340Z,99452.30
2023-02-19T22:22:27.643Z,99454.42
2023-02-19T22:24:58.309Z,99453.42
2023-02-19T22:27:29.850Z,99450.69
2023-02-19T22:30:02.054Z,99461.88
2023-02-19T22:32:34.114Z,99464.66
2023-02-19T22:35:04.436Z,99464.42
2023-02-19T22:37:36.357Z,99465.17
2023-02-19T22:40:08.091Z,99465.67
2023-02-19T22:42:39.951Z,99468.58
2023-02-19T22:45:14.044Z,99468.02
2023-02-19T22:47:47.057Z,99469.70
2023-02-19T22:50:20.715Z,99465.34
2023-02-19T22:52:55.051Z,99473.95
2023-02-19T22:55:23.581Z,99476.80
2023-02-19T22:57:59.055Z,99479.36
2023-02-19T23:00:31.506Z,99482.75
2023-02-19T23:03:02.676Z,99489.05
2023-02-19T23:05:34.766Z,99486.57
2023-02-19T23:08:10.781Z,99489.36
2023-02-19T23:10:43.420Z,99492.41
2023-02-19T23:13:14.139Z,99490.34
2023-02-19T23:15:44.374Z,99494.89
2023-02-19T23:18:14.201Z,99486.54
2023-02-19T23:20:42.663Z,99486.48
2023-02-19T23:23:12.644Z,99485.13
2023-02-19T23:25:44.816Z,99490.43
2023-02-19T23:28:14.381Z,99483.90
2023-02-19T23:30:47.291Z,99487.86
2023-02-19T23:33:17.964Z,99490.11
2023-02-19T23:35:50.388Z,99490.86
2023-02-19T23:38:20.425Z,99491.67
2023-02-19T23:40:51.481Z,99494.66
2023-02-19T23:43:22.959Z,99491.77
2023-02-19T23:45:54.028Z,99493.40
2023-02-19T23:48:23.916Z,99498.64
2023-02-19T23:50:58.158Z,99500.63
2023-02-19T23:53:30.382Z,99495.67
2023-02-19T23:56:01.200Z,99501.70
2023-02-19T23:58:32.202Z,99496.04
